Time;durP1;ratioP1;P1;durP2;ratioP2;P2;SDS_P1;SDS_P2;PMS_P1;PMS_P2;Temp;Humidity;BMP_temperature;BMP_pressure;BME280_temperature;BME280_humidity;BME280_pressure;Samples;Min_cycle;Max_cycle;Signal;HPM_P1;HPM_P2
2023/04/01 00:00:51;;;;;;;0.77;0.77;;;18.20;63.10;;;;;;5109050;27;43429;-70
2023/04/01 00:03:20;;;;;;;0.80;0.80;;;18.20;63.20;;;;;;5108148;27;43828;-71
2023/04/01 00:05:48;;;;;;;0.80;0.80;;;18.10;63.20;;;;;;5106420;27;43393;-72
2023/04/01 00:08:16;;;;;;;0.80;0.80;;;18.10;63.30;;;;;;5108710;27;44013;-72
2023/04/01 00:10:44;;;;;;;1.00;1.00;;;18.10;63.30;;;;;;5108446;27;43565;-71
2023/04/01 00:13:13;;;;;;;0.80;0.80;;;18.20;63.10;;;;;;5108418;27;43910;-71
2023/04/01 00:15:41;;;;;;;0.70;0.70;;;18.30;62.70;;;;;;5108214;27;43425;-71
2023/04/01 00:18:09;;;;;;;0.70;0.70;;;18.30;62.60;;;;;;5108147;27;43373;-70
2023/04/01 00:20:37;;;;;;;0.70;0.70;;;18.30;62.70;;;;;;5107371;27;43574;-70
2023/04/01 00:23:05;;;;;;;1.00;1.00;;;18.30;62.90;;;;;;5107885;27;43906;-70
2023/04/01 00:25:34;;;;;;;0.90;0.90;;;18.20;62.70;;;;;;5108078;27;43413;-71
2023/04/01 00:28:02;;;;;;;0.90;0.90;;;18.20;62.70;;;;;;5104875;27;43824;-71
2023/04/01 00:30:31;;;;;;;0.83;0.83;;;18.20;62.90;;;;;;5108307;27;43535;-71
2023/04/01 00:32:59;;;;;;;0.80;0.80;;;18.20;63.00;;;;;;5103099;27;46073;-73
2023/04/01 00:35:27;;;;;;;1.00;1.00;;;18.10;63.10;;;;;;5108271;27;43447;-70
2023/04/01 00:37:55;;;;;;;0.73;0.73;;;18.10;63.20;;;;;;5108228;27;43399;-71
2023/04/01 00:40:30;;;;;;;0.90;0.90;;;18.10;63.20;;;;;;5094520;27;43653;-72
2023/04/01 00:42:58;;;;;;;0.67;0.67;;;18.10;63.10;;;;;;5104286;27;43829;-72
2023/04/01 00:45:31;;;;;;;2.10;0.80;;;18.10;63.20;;;;;;5105486;27;44951;-70
2023/04/01 00:48:00;;;;;;;3.20;0.90;;;18.10;63.30;;;;;;5093481;27;43413;-73
2023/04/01 00:50:28;;;;;;;1.50;0.80;;;18.10;63.40;;;;;;5102850;27;44019;-70
2023/04/01 00:52:56;;;;;;;0.70;0.70;;;18.10;63.40;;;;;;5105361;27;45749;-71
2023/04/01 00:55:24;;;;;;;0.80;0.80;;;18.10;63.30;;;;;;5108047;27;43366;-71
2023/04/01 00:57:52;;;;;;;1.10;0.83;;;18.10;63.30;;;;;;5105213;27;43402;-70
2023/04/01 01:00:21;;;;;;;0.73;0.73;;;18.10;63.40;;;;;;5104226;27;43889;-71
2023/04/01 01:02:50;;;;;;;0.77;0.77;;;18.00;63.30;;;;;;5096394;27;45596;-72
2023/04/01 01:05:18;;;;;;;1.60;0.70;;;18.00;63.40;;;;;;5094248;27;43713;-71
2023/04/01 01:07:48;;;;;;;0.57;0.57;;;18.10;63.50;;;;;;5104684;27;44091;-70
2023/04/01 01:10:17;;;;;;;0.70;0.70;;;18.20;63.20;;;;;;5107869;27;43853;-69
2023/04/01 01:12:46;;;;;;;1.10;1.00;;;18.30;62.90;;;;;;5107389;27;43878;-69
2023/04/01 01:15:17;;;;;;;0.80;0.80;;;18.30;62.50;;;;;;5095095;27;44896;-72
2023/04/01 01:17:51;;;;;;;0.73;0.73;;;18.30;62.50;;;;;;5107568;27;43373;-70
2023/04/01 01:20:47;;;;;;;0.90;0.90;;;18.30;62.70;;;;;;5107675;27;43372;-70
2023/04/01 01:23:41;;;;;;;0.87;0.87;;;18.30;62.70;;;;;;5107113;27;43849;-72
2023/04/01 01:26:25;;;;;;;0.73;0.73;;;18.30;62.60;;;;;;5103521;27;43473;-70
2023/04/01 01:28:58;;;;;;;0.83;0.70;;;18.20;62.70;;;;;;5100172;27;43419;-71
2023/04/01 01:31:29;;;;;;;0.77;0.77;;;18.20;62.90;;;;;;5104778;27;43653;-70
2023/04/01 01:34:03;;;;;;;0.90;0.90;;;18.20;63.00;;;;;;5096800;27;45341;-70
2023/04/01 01:36:34;;;;;;;0.60;0.60;;;18.10;63.10;;;;;;5099211;27;43670;-70
2023/04/01 01:39:04;;;;;;;2.63;0.90;;;18.20;63.10;;;;;;5100075;27;44060;-70
2023/04/01 01:41:32;;;;;;;0.60;0.60;;;18.20;63.10;;;;;;5104845;27;43645;-72
2023/04/01 01:44:00;;;;;;;0.83;0.83;;;18.10;63.10;;;;;;5095313;27;45853;-69
2023/04/01 01:46:28;;;;;;;0.73;0.73;;;18.10;63.20;;;;;;5107086;27;43376;-72
2023/04/01 01:48:56;;;;;;;0.73;0.73;;;18.10;63.30;;;;;;5105369;27;43406;-72
2023/04/01 01:51:24;;;;;;;0.70;0.70;;;18.10;63.30;;;;;;5105495;27;43530;-71
2023/04/01 01:53:54;;;;;;;0.80;0.80;;;18.20;63.00;;;;;;5100844;27;45811;-70
2023/04/01 01:56:27;;;;;;;1.80;0.97;;;18.30;62.80;;;;;;5104851;27;44067;-72
2023/04/01 01:58:56;;;;;;;0.70;0.70;;;18.30;62.70;;;;;;5097627;27;43359;-71
2023/04/01 02:01:25;;;;;;;1.10;0.87;;;18.20;62.60;;;;;;5100398;27;43418;-71
2023/04/01 02:03:56;;;;;;;0.80;0.80;;;18.20;62.80;;;;;;5104223;27;44030;-70
2023/04/01 02:06:25;;;;;;;0.80;0.80;;;18.20;62.80;;;;;;5104598;27;44898;-70
2023/04/01 02:08:55;;;;;;;1.33;0.90;;;18.20;62.70;;;;;;5104702;27;43391;-72
2023/04/01 02:11:25;;;;;;;0.70;0.70;;;18.20;62.90;;;;;;5098526;27;44125;-72
2023/04/01 02:13:55;;;;;;;0.73;0.73;;;18.20;63.00;;;;;;5104540;27;44347;-71
2023/04/01 02:16:27;;;;;;;0.90;0.90;;;18.10;63.10;;;;;;5106365;27;43576;-70
2023/04/01 02:18:55;;;;;;;0.80;0.80;;;18.10;63.20;;;;;;5103436;27;43395;-71
2023/04/01 02:21:24;;;;;;;0.73;0.73;;;18.10;63.10;;;;;;5098452;27;43540;-70
2023/04/01 02:23:54;;;;;;;0.80;0.80;;;18.10;63.20;;;;;;5101490;27;45918;-70
2023/04/01 02:26:21;;;;;;;0.53;0.53;;;18.10;63.20;;;;;;5099600;27;44982;-70
2023/04/01 02:28:50;;;;;;;0.77;0.77;;;18.10;63.30;;;;;;5104291;27;43533;-72
2023/04/01 02:31:18;;;;;;;0.70;0.70;;;18.00;63.30;;;;;;5104986;27;43620;-71
2023/04/01 02:33:46;;;;;;;0.80;0.80;;;18.00;63.30;;;;;;5093484;27;46117;-72
2023/04/01 02:36:14;;;;;;;0.63;0.63;;;18.10;63.40;;;;;;5103775;27;44783;-70
2023/04/01 02:38:42;;;;;;;0.70;0.70;;;18.20;63.00;;;;;;5104329;27;44023;-72
2023/04/01 02:41:12;;;;;;;0.63;0.63;;;18.20;62.60;;;;;;5105637;27;43454;-70
2023/04/01 02:43:41;;;;;;;0.70;0.70;;;18.30;62.70;;;;;;5103255;27;45791;-72
2023/04/01 02:46:09;;;;;;;0.83;0.80;;;18.20;62.70;;;;;;5104084;27;43450;-71
2023/04/01 02:48:37;;;;;;;0.80;0.80;;;18.20;62.80;;;;;;5104614;27;43398;-73
2023/04/01 02:51:06;;;;;;;0.83;0.83;;;18.20;62.80;;;;;;5103936;27;43567;-71
2023/04/01 02:53:33;;;;;;;0.80;0.80;;;18.20;62.80;;;;;;5105182;27;43900;-71
2023/04/01 02:56:01;;;;;;;0.80;0.80;;;18.20;62.90;;;;;;5105864;27;43851;-71
2023/04/01 02:58:31;;;;;;;0.97;0.90;;;18.10;63.00;;;;;;5103711;27;43904;-71
2023/04/01 03:00:59;;;;;;;0.90;0.90;;;18.10;63.10;;;;;;5100884;27;43378;-71
2023/04/01 03:03:27;;;;;;;0.73;0.73;;;18.10;63.20;;;;;;5107164;27;43596;-70
2023/04/01 03:05:56;;;;;;;0.90;0.90;;;18.10;63.10;;;;;;5108885;27;43958;-70
2023/04/01 03:08:24;;;;;;;0.67;0.67;;;18.10;63.20;;;;;;5106946;27;43459;-71
2023/04/01 03:10:52;;;;;;;0.77;0.77;;;18.00;63.10;;;;;;5109880;27;43382;-70
2023/04/01 03:13:20;;;;;;;0.67;0.67;;;18.00;63.30;;;;;;5105308;27;45529;-71
2023/04/01 03:15:49;;;;;;;0.77;0.77;;;18.00;63.30;;;;;;5106104;27;45005;-71
2023/04/01 03:18:17;;;;;;;0.80;0.80;;;18.00;63.30;;;;;;5093288;27;43485;-70
2023/04/01 03:20:45;;;;;;;0.73;0.73;;;18.00;63.20;;;;;;5108003;27;43583;-71
2023/04/01 03:23:13;;;;;;;0.70;0.70;;;18.00;63.20;;;;;;5104782;27;43875;-71
2023/04/01 03:25:41;;;;;;;0.87;0.87;;;18.00;63.30;;;;;;5101932;27;44024;-72
2023/04/01 03:28:12;;;;;;;0.80;0.80;;;18.00;63.40;;;;;;5106763;27;43506;-70
2023/04/01 03:30:40;;;;;;;1.00;1.00;;;18.00;63.50;;;;;;5102606;27;43545;-72
2023/04/01 03:33:10;;;;;;;0.63;0.63;;;18.00;63.40;;;;;;5093429;27;44076;-69
2023/04/01 03:35:38;;;;;;;0.87;0.87;;;18.10;63.10;;;;;;5095912;27;44725;-70
2023/04/01 03:38:06;;;;;;;1.03;1.03;;;18.20;62.80;;;;;;5099265;27;43453;-71
2023/04/01 03:40:37;;;;;;;0.90;0.90;;;18.30;62.50;;;;;;5094158;27;43476;-72
2023/04/01 03:43:08;;;;;;;1.13;0.90;;;18.30;62.40;;;;;;5093882;27;45420;-72
2023/04/01 03:45:37;;;;;;;0.90;0.90;;;18.20;62.50;;;;;;5095568;27;43433;-70
2023/04/01 03:48:05;;;;;;;1.00;1.00;;;18.20;62.60;;;;;;5106351;27;43974;-71
2023/04/01 03:50:37;;;;;;;0.90;0.90;;;18.20;62.50;;;;;;5102346;27;43396;-70
2023/04/01 03:53:05;;;;;;;0.90;0.90;;;18.20;62.50;;;;;;5108366;27;43555;-71
2023/04/01 03:55:33;;;;;;;1.00;1.00;;;18.20;62.70;;;;;;5104153;27;44753;-72
2023/04/01 03:58:02;;;;;;;1.10;1.10;;;18.10;62.90;;;;;;5106461;27;43528;-72
2023/04/01 04:00:30;;;;;;;0.90;0.90;;;18.10;63.10;;;;;;5104964;27;43410;-71
2023/04/01 04:02:58;;;;;;;0.90;0.90;;;18.10;63.10;;;;;;5106528;27;45752;-71
2023/04/01 04:05:31;;;;;;;1.20;1.10;;;18.10;62.90;;;;;;5100517;27;43344;-72
2023/04/01 04:08:02;;;;;;;0.93;0.93;;;18.10;63.00;;;;;;5107091;27;43426;-72
2023/04/01 04:10:30;;;;;;;1.13;1.13;;;18.00;63.00;;;;;;5107181;27;43380;-72
2023/04/01 04:12:58;;;;;;;1.10;1.00;;;18.00;63.20;;;;;;5093680;27;45605;-71
2023/04/01 04:15:29;;;;;;;0.90;0.90;;;18.00;63.30;;;;;;5103225;27;43933;-70
2023/04/01 04:17:57;;;;;;;1.63;1.00;;;18.00;63.10;;;;;;5105084;27;43926;-72
2023/04/01 04:20:25;;;;;;;0.90;0.90;;;18.00;63.00;;;;;;5109040;27;44092;-72
2023/04/01 04:22:53;;;;;;;0.83;0.83;;;18.00;63.10;;;;;;5108079;27;44073;-71
2023/04/01 04:25:22;;;;;;;0.80;0.80;;;18.00;63.20;;;;;;5106186;27;43356;-71
2023/04/01 04:27:50;;;;;;;0.90;0.90;;;18.00;63.30;;;;;;5105997;27;43455;-71
2023/04/01 04:30:18;;;;;;;1.00;1.00;;;18.00;63.40;;;;;;5103515;27;43434;-73
2023/04/01 04:32:46;;;;;;;1.03;1.03;;;18.10;63.20;;;;;;5101325;27;44028;-71
2023/04/01 04:35:15;;;;;;;1.10;1.10;;;18.20;62.90;;;;;;5105590;27;44541;-72
2023/04/01 04:37:43;;;;;;;1.17;1.10;;;18.20;62.50;;;;;;5106122;27;43450;-72
2023/04/01 04:40:11;;;;;;;0.83;0.83;;;18.30;62.30;;;;;;5106428;27;43452;-70
2023/04/01 04:42:41;;;;;;;1.40;1.30;;;18.30;62.20;;;;;;5099194;27;43986;-71
2023/04/01 04:45:13;;;;;;;1.17;1.17;;;18.30;62.50;;;;;;5105264;27;44682;-72
2023/04/01 04:47:49;;;;;;;1.43;1.33;;;18.30;62.60;;;;;;5103772;27;44011;-70
2023/04/01 04:50:18;;;;;;;1.10;1.10;;;18.20;62.30;;;;;;5106484;27;43575;-72
2023/04/01 04:52:46;;;;;;;1.10;1.10;;;18.20;62.40;;;;;;5105323;27;46111;-71
2023/04/01 04:55:14;;;;;;;1.00;1.00;;;18.20;62.70;;;;;;5102493;27;43952;-70
2023/04/01 04:57:46;;;;;;;1.00;1.00;;;18.10;62.80;;;;;;5107390;27;43335;-71
2023/04/01 05:00:15;;;;;;;0.77;0.77;;;18.10;63.10;;;;;;5106941;27;43483;-70
2023/04/01 05:02:49;;;;;;;0.87;0.87;;;18.10;62.90;;;;;;5105339;27;46006;-71
2023/04/01 05:05:18;;;;;;;1.13;1.13;;;18.10;62.90;;;;;;5104788;27;44743;-71
2023/04/01 05:07:46;;;;;;;0.80;0.80;;;18.10;63.00;;;;;;5103015;27;43369;-71
2023/04/01 05:10:17;;;;;;;1.13;1.13;;;18.00;63.00;;;;;;5104253;27;43561;-70
2023/04/01 05:12:47;;;;;;;1.13;1.13;;;18.00;63.10;;;;;;5092821;27;44838;-71
2023/04/01 05:15:18;;;;;;;1.10;1.10;;;18.00;63.30;;;;;;5104460;27;44766;-70
2023/04/01 05:17:46;;;;;;;1.10;1.10;;;18.10;63.20;;;;;;5105199;27;43426;-72
2023/04/01 05:20:15;;;;;;;0.90;0.90;;;18.20;62.90;;;;;;5101567;27;43492;-71
2023/04/01 05:22:43;;;;;;;1.27;1.17;;;18.20;62.60;;;;;;5096730;27;45730;-72
2023/04/01 05:25:11;;;;;;;1.00;1.00;;;18.20;62.60;;;;;;5104973;27;43395;-69
2023/04/01 05:27:39;;;;;;;1.10;1.10;;;18.10;62.80;;;;;;5105467;27;43377;-71
2023/04/01 05:30:10;;;;;;;1.00;1.00;;;18.10;62.90;;;;;;5113521;27;43548;-71
2023/04/01 05:32:56;;;;;;;1.00;1.00;;;18.10;62.90;;;;;;5102509;27;43506;-70
2023/04/01 05:35:24;;;;;;;1.10;1.10;;;18.10;62.90;;;;;;5104612;27;43795;-71
2023/04/01 05:37:52;;;;;;;0.93;0.93;;;18.10;62.90;;;;;;5106845;27;43441;-71
2023/04/01 05:40:21;;;;;;;1.10;1.10;;;18.10;63.10;;;;;;5090957;27;43469;-72
2023/04/01 05:42:49;;;;;;;1.20;1.20;;;18.00;63.20;;;;;;5098102;27;45920;-72
2023/04/01 05:45:19;;;;;;;1.10;1.10;;;18.00;63.10;;;;;;5104810;27;43423;-71
2023/04/01 05:48:19;;;;;;;0.87;0.87;;;18.00;63.00;;;;;;5078594;27;43387;-70
2023/04/01 05:50:47;;;;;;;1.07;1.07;;;18.00;63.00;;;;;;5107729;27;43406;-70
2023/04/01 05:53:15;;;;;;;0.83;0.83;;;18.00;63.10;;;;;;5107062;27;43847;-70
2023/04/01 05:55:44;;;;;;;1.00;1.00;;;18.00;63.20;;;;;;5103346;27;43395;-72
2023/04/01 05:58:12;;;;;;;1.10;1.10;;;18.00;63.30;;;;;;5097973;27;44034;-72
2023/04/01 06:00:44;;;;;;;1.10;1.10;;;18.00;63.20;;;;;;5097524;27;43454;-70
2023/04/01 06:03:19;;;;;;;1.07;1.07;;;18.10;62.90;;;;;;5099611;27;45146;-71
2023/04/01 06:05:47;;;;;;;0.77;0.77;;;18.20;62.60;;;;;;5103463;27;43505;-71
2023/04/01 06:08:17;;;;;;;0.90;0.90;;;18.20;62.40;;;;;;5101349;27;44038;-71
2023/04/01 06:11:00;;;;;;;1.00;1.00;;;18.20;62.40;;;;;;5096561;27;43409;-70
2023/04/01 06:13:35;;;;;;;1.00;1.00;;;18.20;62.60;;;;;;5091923;27;45638;-70
2023/04/01 06:16:09;;;;;;;0.97;0.97;;;18.20;62.60;;;;;;5104634;27;45037;-70
2023/04/01 06:18:46;;;;;;;1.00;1.00;;;18.20;62.50;;;;;;5095580;27;43479;-70
2023/04/01 06:21:25;;;;;;;1.10;1.10;;;18.10;62.60;;;;;;5098538;27;43476;-71
2023/04/01 06:24:06;;;;;;;1.00;1.00;;;18.10;62.80;;;;;;5100781;27;45400;-71
2023/04/01 06:26:35;;;;;;;1.07;1.07;;;18.10;63.00;;;;;;5106023;27;43962;-72
2023/04/01 06:29:42;;;;;;;1.00;1.00;;;18.00;63.00;;;;;;5091251;27;43527;-72
2023/04/01 06:32:31;;;;;;;0.70;0.70;;;18.00;62.90;;;;;;5084752;27;43497;-70
2023/04/01 06:35:29;;;;;;;0.77;0.77;;;18.00;62.90;;;;;;5104269;27;45789;-72
2023/04/01 06:38:10;;;;;;;0.90;0.90;;;18.00;63.10;;;;;;5102579;27;44861;-71
2023/04/01 06:40:59;;;;;;;2.10;0.97;;;18.00;63.30;;;;;;5110008;27;43408;-72
2023/04/01 06:43:31;;;;;;;1.10;1.10;;;18.00;63.30;;;;;;5108396;27;43481;-72
2023/04/01 06:46:20;;;;;;;1.00;1.00;;;18.00;63.20;;;;;;5106563;27;43972;-73
2023/04/01 06:49:18;;;;;;;1.00;1.00;;;18.00;63.20;;;;;;5102500;27;43433;-70
2023/04/01 06:52:10;;;;;;;0.80;0.80;;;18.00;63.30;;;;;;5104825;27;43400;-70
2023/04/01 06:55:02;;;;;;;0.80;0.80;;;17.90;63.30;;;;;;5105867;27;43424;-70
2023/04/01 06:57:56;;;;;;;0.77;0.77;;;17.90;63.30;;;;;;5101314;27;43576;-71
2023/04/01 07:00:28;;;;;;;0.90;0.90;;;18.00;63.30;;;;;;5102968;27;45271;-71
2023/04/01 07:03:01;;;;;;;0.87;0.87;;;18.10;63.10;;;;;;5105573;27;43392;-70
2023/04/01 07:05:32;;;;;;;0.77;0.77;;;18.20;62.70;;;;;;5102548;27;43611;-72
2023/04/01 07:08:03;;;;;;;0.90;0.90;;;18.20;62.50;;;;;;5106984;27;44099;-71
2023/04/01 07:10:35;;;;;;;1.00;1.00;;;18.20;62.60;;;;;;5100837;27;43862;-71
2023/04/01 07:13:24;;;;;;;0.87;0.87;;;18.10;62.60;;;;;;5102978;27;43559;-72
2023/04/01 07:16:04;;;;;;;0.80;0.80;;;18.20;62.60;;;;;;5105452;27;43577;-71
2023/04/01 07:18:35;;;;;;;0.80;0.80;;;18.20;62.70;;;;;;5103385;27;44052;-72
2023/04/01 07:21:06;;;;;;;0.90;0.90;;;18.10;62.90;;;;;;5109306;27;43501;-70
2023/04/01 07:23:37;;;;;;;1.00;1.00;;;18.10;63.00;;;;;;5103312;27;43545;-71
2023/04/01 07:26:24;;;;;;;0.90;0.90;;;18.00;63.10;;;;;;5104423;27;43603;-71
2023/04/01 07:29:11;;;;;;;1.07;1.00;;;18.00;63.00;;;;;;5096135;27;44796;-70
2023/04/01 07:32:09;;;;;;;0.87;0.87;;;18.00;63.00;;;;;;5099170;27;44579;-70
2023/04/01 07:34:41;;;;;;;0.90;0.90;;;18.00;63.10;;;;;;5099139;27;43367;-71
2023/04/01 07:37:19;;;;;;;0.77;0.77;;;18.00;63.30;;;;;;5104323;27;43964;-71
2023/04/01 07:39:51;;;;;;;1.00;1.00;;;18.00;63.40;;;;;;5094426;27;45018;-72
2023/04/01 07:42:36;;;;;;;1.00;1.00;;;17.90;64.00;;;;;;5104043;27;43427;-71
2023/04/01 07:45:08;;;;;;;1.00;1.00;;;18.00;63.10;;;;;;5107315;27;43444;-71
2023/04/01 07:47:51;;;;;;;0.90;0.90;;;18.10;62.90;;;;;;5105186;27;43505;-70
2023/04/01 07:50:22;;;;;;;0.80;0.80;;;18.20;62.70;;;;;;5095019;27;44092;-71
2023/04/01 07:52:54;;;;;;;0.67;0.67;;;18.20;62.70;;;;;;5106725;27;44903;-71
2023/04/01 07:55:29;;;;;;;0.97;0.97;;;18.10;62.80;;;;;;5091262;27;43442;-72
2023/04/01 07:57:59;;;;;;;0.80;0.80;;;18.10;62.90;;;;;;5090578;27;43495;-71
2023/04/01 08:00:32;;;;;;;0.80;0.80;;;18.10;63.50;;;;;;5098478;27;43854;-71
2023/04/01 08:03:23;;;;;;;0.90;0.90;;;18.10;62.90;;;;;;5096012;27;44066;-72
2023/04/01 08:05:55;;;;;;;0.67;0.67;;;18.10;63.10;;;;;;5105034;27;44018;-71
2023/04/01 08:08:32;;;;;;;0.90;0.90;;;18.00;63.10;;;;;;5107389;27;43889;-72
2023/04/01 08:11:36;;;;;;;0.80;0.80;;;18.00;63.20;;;;;;5075605;27;43820;-70
2023/04/01 08:14:24;;;;;;;1.07;0.90;;;18.00;63.10;;;;;;5102752;27;43378;-70
2023/04/01 08:17:13;;;;;;;0.80;0.80;;;18.00;63.20;;;;;;5101934;27;43389;-70
2023/04/01 08:19:55;;;;;;;0.80;0.80;;;18.00;63.30;;;;;;5104992;27;43508;-70
2023/04/01 08:22:28;;;;;;;0.73;0.73;;;18.00;63.40;;;;;;5106349;27;45285;-71
2023/04/01 08:25:03;;;;;;;0.60;0.60;;;17.90;63.30;;;;;;5099997;27;43462;-71
2023/04/01 08:27:35;;;;;;;0.80;0.80;;;18.00;63.30;;;;;;5105067;27;43945;-71
2023/04/01 08:30:04;;;;;;;0.90;0.90;;;18.00;63.20;;;;;;5102950;27;44631;-72
2023/04/01 08:32:37;;;;;;;0.50;0.50;;;18.00;63.30;;;;;;5096551;27;43915;-72
2023/04/01 08:35:09;;;;;;;0.67;0.67;;;18.00;63.40;;;;;;5105640;27;44016;-71
2023/04/01 08:37:41;;;;;;;0.60;0.60;;;17.90;63.40;;;;;;5106377;27;43432;-72
2023/04/01 08:40:36;;;;;;;1.00;1.00;;;17.90;63.50;;;;;;5106255;27;43525;-72
2023/04/01 08:43:10;;;;;;;0.80;0.80;;;18.00;63.40;;;;;;5099890;27;43894;-71
2023/04/01 08:45:51;;;;;;;0.80;0.80;;;18.10;63.00;;;;;;5095664;27;44346;-71
2023/04/01 08:48:39;;;;;;;0.60;0.60;;;18.20;62.70;;;;;;5108064;27;43342;-72
2023/04/01 08:51:26;;;;;;;0.70;0.70;;;18.20;62.50;;;;;;5095201;27;43550;-72
2023/04/01 08:54:15;;;;;;;1.00;1.00;;;18.10;62.70;;;;;;5104855;27;45580;-72
2023/04/01 08:56:49;;;;;;;0.60;0.60;;;18.10;62.80;;;;;;5096281;27;44675;-71
2023/04/01 08:59:37;;;;;;;0.87;0.87;;;18.20;62.80;;;;;;5104158;27;43440;-72
2023/04/01 09:02:31;;;;;;;0.70;0.70;;;18.10;62.90;;;;;;5103802;27;44465;-70
2023/04/01 09:05:36;;;;;;;0.83;0.83;;;18.10;63.10;;;;;;5104182;27;44083;-71
2023/04/01 09:08:12;;;;;;;0.60;0.60;;;18.00;63.20;;;;;;5098323;27;44844;-71
2023/04/01 09:10:57;;;;;;;0.60;0.60;;;18.00;63.30;;;;;;5103029;27;43487;-72
2023/04/01 09:14:31;;;;;;;0.73;0.73;;;18.00;63.10;;;;;;5105456;27;43405;-71
2023/04/01 09:17:39;;;;;;;0.60;0.60;;;18.00;63.30;;;;;;5006990;28;43594;-72
2023/04/01 09:20:18;;;;;;;0.53;0.53;;;18.00;63.50;;;;;;5023901;28;43450;-71
2023/04/01 09:23:01;;;;;;;0.70;0.70;;;17.90;63.50;;;;;;5084949;27;43508;-71
2023/04/01 09:25:51;;;;;;;0.87;0.87;;;17.90;63.50;;;;;;5108128;27;43436;-70
2023/04/01 09:28:20;;;;;;;0.60;0.60;;;18.00;63.30;;;;;;5103082;27;45847;-71
2023/04/01 09:31:13;;;;;;;0.80;0.80;;;18.10;63.00;;;;;;5105456;27;44770;-70
2023/04/01 09:34:40;;;;;;;0.60;0.60;;;18.20;62.70;;;;;;5101946;27;43429;-71
2023/04/01 09:37:18;;;;;;;0.80;0.80;;;18.10;62.70;;;;;;5103409;27;43497;-70
2023/04/01 09:39:56;;;;;;;0.80;0.80;;;18.10;62.90;;;;;;5092364;27;44079;-71
2023/04/01 09:42:35;;;;;;;0.67;0.67;;;18.10;62.90;;;;;;5103935;27;43486;-71
2023/04/01 09:45:36;;;;;;;0.70;0.70;;;18.10;62.90;;;;;;5097402;27;43362;-70
2023/04/01 09:48:10;;;;;;;0.60;0.60;;;18.00;63.00;;;;;;5094202;27;43516;-72
2023/04/01 09:50:43;;;;;;;0.67;0.67;;;18.00;63.20;;;;;;5101943;27;43670;-71
2023/04/01 09:53:26;;;;;;;0.70;0.70;;;18.00;63.30;;;;;;5099055;27;44020;-72
2023/04/01 09:56:25;;;;;;;0.77;0.77;;;18.00;63.30;;;;;;5094795;27;43428;-70
2023/04/01 09:59:15;;;;;;;0.60;0.60;;;18.00;63.30;;;;;;5105096;27;44489;-71
2023/04/01 10:02:32;;;;;;;0.83;0.83;;;18.00;63.30;;;;;;5101374;27;43600;-71
2023/04/01 10:05:35;;;;;;;0.80;0.80;;;17.90;63.40;;;;;;5100425;27;43493;-71
2023/04/01 10:08:40;;;;;;;0.60;0.60;;;17.90;63.50;;;;;;5103788;27;43434;-70
2023/04/01 10:11:38;;;;;;;0.70;0.70;;;17.90;63.50;;;;;;5094401;27;43551;-71
2023/04/01 10:14:23;;;;;;;0.80;0.80;;;18.00;63.20;;;;;;5080451;27;45809;-71
2023/04/01 10:17:17;;;;;;;0.87;0.70;;;18.10;62.90;;;;;;5101292;27;44367;-70
2023/04/01 10:20:13;;;;;;;0.80;0.80;;;18.10;62.90;;;;;;5103900;27;43397;-70
2023/04/01 10:22:51;;;;;;;0.70;0.70;;;18.00;63.00;;;;;;5098657;27;43455;-71
2023/04/01 10:25:30;;;;;;;0.57;0.57;;;18.00;63.20;;;;;;5106543;27;43895;-71
2023/04/01 10:28:17;;;;;;;0.60;0.60;;;18.00;63.00;;;;;;5108378;27;43435;-71
2023/04/01 10:31:26;;;;;;;0.60;0.60;;;18.00;63.00;;;;;;5106901;27;43408;-72
2023/04/01 10:34:21;;;;;;;0.80;0.80;;;18.00;63.30;;;;;;5108799;27;43427;-70
2023/04/01 10:36:53;;;;;;;0.70;0.70;;;17.90;63.30;;;;;;5096230;27;43678;-69
2023/04/01 10:39:36;;;;;;;0.73;0.73;;;17.90;63.40;;;;;;5103748;27;43407;-71
2023/04/01 10:42:45;;;;;;;0.63;0.63;;;17.90;63.20;;;;;;5102134;27;43403;-70
2023/04/01 10:45:57;;;;;;;0.50;0.50;;;17.90;63.30;;;;;;5098352;27;43445;-71
2023/04/01 10:49:05;;;;;;;0.50;0.50;;;17.90;63.40;;;;;;5103162;27;44815;-71
2023/04/01 10:51:48;;;;;;;0.87;0.87;;;17.90;63.50;;;;;;5091372;27;45097;-70
2023/04/01 10:54:46;;;;;;;0.50;0.50;;;17.90;63.60;;;;;;5102458;27;43450;-70
2023/04/01 10:57:46;;;;;;;0.70;0.70;;;18.00;63.40;;;;;;5113881;27;44440;-70
2023/04/01 11:01:04;;;;;;;0.70;0.70;;;18.10;63.00;;;;;;5106909;27;43799;-72
2023/04/01 11:04:30;;;;;;;0.60;0.60;;;18.20;62.70;;;;;;5075433;27;43601;-70
2023/04/01 11:07:51;;;;;;;0.60;0.60;;;18.10;62.60;;;;;;5074750;27;43969;-71
2023/04/01 11:10:55;;;;;;;0.60;0.60;;;18.10;62.70;;;;;;5101195;27;43523;-71
2023/04/01 11:13:52;;;;;;;0.77;0.77;;;18.10;62.60;;;;;;5106822;27;45429;-69
2023/04/01 11:16:39;;;;;;;0.53;0.53;;;18.10;62.90;;;;;;5101258;27;45340;-71
2023/04/01 11:19:46;;;;;;;0.60;0.60;;;18.10;63.20;;;;;;5105586;27;43490;-71
2023/04/01 11:22:48;;;;;;;0.70;0.70;;;18.00;63.30;;;;;;5107724;27;43999;-70
2023/04/01 11:25:30;;;;;;;0.60;0.60;;;18.00;63.30;;;;;;5104844;27;43756;-70
2023/04/01 11:28:44;;;;;;;0.57;0.57;;;18.00;63.20;;;;;;5108251;27;43449;-72
2023/04/01 11:31:27;;;;;;;0.63;0.63;;;18.00;63.40;;;;;;5096416;27;43438;-71
2023/04/01 11:33:58;;;;;;;0.60;0.60;;;17.90;63.40;;;;;;5106984;27;43452;-71
2023/04/01 11:36:33;;;;;;;0.70;0.70;;;17.90;63.50;;;;;;5110113;27;44287;-71
2023/04/01 11:39:11;;;;;;;0.70;0.70;;;17.90;63.40;;;;;;5090400;27;43952;-72
2023/04/01 11:42:21;;;;;;;0.80;0.80;;;17.90;63.30;;;;;;5051420;28;43462;-70
2023/04/01 11:45:16;;;;;;;0.50;0.50;;;17.90;63.50;;;;;;5055109;28;43381;-71
2023/04/01 11:48:01;;;;;;;0.67;0.67;;;17.90;63.50;;;;;;5081298;27;45700;-72
2023/04/01 11:50:36;;;;;;;0.60;0.60;;;17.90;63.70;;;;;;5095451;27;43891;-71
2023/04/01 11:53:19;;;;;;;0.60;0.60;;;17.90;63.70;;;;;;5105716;27;43405;-70
2023/04/01 11:56:18;;;;;;;0.60;0.60;;;18.00;63.40;;;;;;5105691;27;43461;-72
2023/04/01 11:58:55;;;;;;;0.90;0.90;;;18.10;63.10;;;;;;5095040;27;44055;-71
2023/04/01 12:01:34;;;;;;;0.67;0.67;;;18.10;62.80;;;;;;5107114;27;43441;-72
2023/04/01 12:04:43;;;;;;;0.70;0.70;;;18.10;62.70;;;;;;5104817;27;43831;-71
2023/04/01 12:07:20;;;;;;;0.60;0.60;;;18.10;62.90;;;;;;5100018;27;43766;-71
2023/04/01 12:09:52;;;;;;;0.60;0.60;;;18.10;62.90;;;;;;5106283;27;43741;-73
2023/04/01 12:12:25;;;;;;;0.50;0.50;;;18.10;63.00;;;;;;5108411;27;43430;-71
2023/04/01 12:15:00;;;;;;;0.53;0.53;;;18.00;63.10;;;;;;5106626;27;43356;-70
2023/04/01 12:17:33;;;;;;;0.67;0.67;;;18.00;63.30;;;;;;5109044;27;43361;-70
2023/04/01 12:20:06;;;;;;;0.60;0.60;;;17.90;63.30;;;;;;5092861;27;45275;-71
2023/04/01 12:22:42;;;;;;;0.50;0.50;;;17.90;63.40;;;;;;5104550;27;43440;-71
2023/04/01 12:25:20;;;;;;;0.80;0.80;;;17.90;63.30;;;;;;5102048;27;44015;-71
2023/04/01 12:27:54;;;;;;;0.70;0.70;;;17.90;63.50;;;;;;5108751;27;43450;-71
2023/04/01 12:30:31;;;;;;;0.73;0.73;;;17.90;63.50;;;;;;5108242;27;43846;-73
2023/04/01 12:33:08;;;;;;;0.80;0.80;;;17.90;63.60;;;;;;5106406;27;45065;-70
2023/04/01 12:35:47;;;;;;;0.70;0.70;;;17.90;63.80;;;;;;5107065;27;44018;-70
2023/04/01 12:38:21;;;;;;;0.73;0.73;;;17.90;63.70;;;;;;5093593;27;43419;-71
2023/04/01 12:40:57;;;;;;;0.70;0.70;;;18.00;63.40;;;;;;5107862;27;43623;-70
2023/04/01 12:44:06;;;;;;;0.70;0.70;;;18.10;63.80;;;;;;5105357;27;43491;-71
2023/04/01 12:46:36;;;;;;;0.73;0.73;;;18.10;63.00;;;;;;5084932;27;43989;-73
2023/04/01 12:49:27;;;;;;;0.70;0.70;;;18.10;63.20;;;;;;5108393;27;43351;-72
2023/04/01 12:52:03;;;;;;;0.87;0.87;;;18.00;63.20;;;;;;5106533;27;43764;-71
2023/04/01 12:54:50;;;;;;;0.80;0.80;;;18.00;63.10;;;;;;5102344;27;44752;-71
2023/04/01 12:57:30;;;;;;;0.70;0.70;;;18.00;63.20;;;;;;5101302;27;43975;-70
2023/04/01 13:00:17;;;;;;;0.80;0.80;;;18.00;63.30;;;;;;5106601;27;43408;-71
2023/04/01 13:02:52;;;;;;;0.87;0.87;;;17.90;63.40;;;;;;5031761;28;43916;-71
2023/04/01 13:05:47;;;;;;;0.70;0.70;;;17.90;63.60;;;;;;5079345;28;43352;-72
2023/04/01 13:08:24;;;;;;;0.63;0.63;;;17.90;63.50;;;;;;5079081;28;43400;-70
2023/04/01 13:11:00;;;;;;;0.90;0.90;;;17.90;63.60;;;;;;5081691;28;43491;-70
2023/04/01 13:13:39;;;;;;;0.80;0.80;;;17.90;63.60;;;;;;5080813;28;43922;-72
2023/04/01 13:16:09;;;;;;;0.90;0.90;;;17.90;63.70;;;;;;5076809;28;43487;-73
2023/04/01 13:18:40;;;;;;;0.73;0.73;;;17.80;63.80;;;;;;5076470;28;43666;-71
2023/04/01 13:21:14;;;;;;;0.70;0.70;;;17.80;63.80;;;;;;5060316;28;43618;-71
2023/04/01 13:23:54;;;;;;;0.73;0.73;;;17.80;63.60;;;;;;5071067;28;43933;-71
2023/04/01 13:26:27;;;;;;;0.70;0.70;;;17.90;63.80;;;;;;5077158;28;43470;-71
2023/04/01 13:29:00;;;;;;;0.70;0.70;;;17.80;63.70;;;;;;5064196;28;43466;-70
2023/04/01 13:31:39;;;;;;;0.70;0.70;;;17.80;63.80;;;;;;5063401;28;43932;-71
2023/04/01 13:34:17;;;;;;;0.73;0.73;;;17.80;63.90;;;;;;5067763;28;43676;-70
2023/04/01 13:36:52;;;;;;;1.00;1.00;;;17.80;63.90;;;;;;5054355;28;45079;-72
2023/04/01 13:39:37;;;;;;;0.80;0.80;;;17.90;63.60;;;;;;5052908;28;43501;-71
2023/04/01 13:42:18;;;;;;;0.70;0.70;;;18.00;63.30;;;;;;5080757;28;44132;-70